sensor_id;sensor_type;location;lat;lon;timestamp;P1;durP1;ratioP1;P2;durP2;ratioP2
23322;SDS011;11833;52.554;13.554;2023-02-01T01:05:45;11.98;;;2.40;;
23322;SDS011;11833;52.554;13.554;2023-02-01T01:08:13;14.07;;;3.05;;
23322;SDS011;11833;52.554;13.554;2023-02-01T01:10:42;13.95;;;2.47;;
23322;SDS011;11833;52.554;13.554;2023-02-01T01:13:08;11.77;;;2.42;;
23322;SDS011;11833;52.554;13.554;2023-02-01T01:15:37;13.50;;;2.42;;
23322;SDS011;11833;52.554;13.554;2023-02-01T01:18:04;15.60;;;2.15;;
23322;SDS011;11833;52.554;13.554;2023-02-01T01:20:33;13.38;;;2.90;;
23322;SDS011;11833;52.554;13.554;2023-02-01T01:23:00;16.13;;;2.13;;
23322;SDS011;11833;52.554;13.554;2023-02-01T01:25:26;8.65;;;2.00;;
23322;SDS011;11833;52.554;13.554;2023-02-01T01:27:52;17.00;;;2.20;;
23322;SDS011;11833;52.554;13.554;2023-02-01T01:30:18;16.35;;;2.65;;
23322;SDS011;11833;52.554;13.554;2023-02-01T01:32:44;16.30;;;2.55;;
23322;SDS011;11833;52.554;13.554;2023-02-01T01:35:10;16.50;;;2.47;;
23322;SDS011;11833;52.554;13.554;2023-02-01T01:37:36;12.10;;;2.55;;
23322;SDS011;11833;52.554;13.554;2023-02-01T01:40:05;10.45;;;3.10;;
23322;SDS011;11833;52.554;13.554;2023-02-01T01:42:37;11.13;;;2.33;;
23322;SDS011;11833;52.554;13.554;2023-02-01T01:47:47;17.15;;;3.45;;
23322;SDS011;11833;52.554;13.554;2023-02-01T01:50:22;14.38;;;2.28;;
23322;SDS011;11833;52.554;13.554;2023-02-01T01:52:53;11.90;;;2.03;;
23322;SDS011;11833;52.554;13.554;2023-02-01T01:55:21;15.18;;;3.95;;
23322;SDS011;11833;52.554;13.554;2023-02-01T01:57:52;17.95;;;2.65;;
23322;SDS011;11833;52.554;13.554;2023-02-01T02:00:31;11.82;;;3.08;;
23322;SDS011;11833;52.554;13.554;2023-02-01T02:03:03;12.15;;;2.45;;
23322;SDS011;11833;52.554;13.554;2023-02-01T02:05:39;17.25;;;2.55;;
23322;SDS011;11833;52.554;13.554;2023-02-01T02:08:05;13.45;;;2.65;;
23322;SDS011;11833;52.554;13.554;2023-02-01T02:10:31;13.27;;;2.80;;
23322;SDS011;11833;52.554;13.554;2023-02-01T02:13:16;14.52;;;3.47;;
23322;SDS011;11833;52.554;13.554;2023-02-01T02:15:45;12.65;;;3.05;;
23322;SDS011;11833;52.554;13.554;2023-02-01T02:18:30;14.77;;;2.38;;
23322;SDS011;11833;52.554;13.554;2023-02-01T02:23:39;11.95;;;3.60;;
23322;SDS011;11833;52.554;13.554;2023-02-01T02:39:06;18.13;;;3.22;;
23322;SDS011;11833;52.554;13.554;2023-02-01T02:48:29;14.10;;;3.30;;
23322;SDS011;11833;52.554;13.554;2023-02-01T02:53:51;11.60;;;2.72;;
23322;SDS011;11833;52.554;13.554;2023-02-01T02:56:37;12.18;;;2.83;;
23322;SDS011;11833;52.554;13.554;2023-02-01T02:59:23;20.85;;;3.78;;
23322;SDS011;11833;52.554;13.554;2023-02-01T03:02:10;18.98;;;2.97;;
23322;SDS011;11833;52.554;13.554;2023-02-01T03:04:56;16.00;;;3.70;;
23322;SDS011;11833;52.554;13.554;2023-02-01T03:13:30;11.13;;;2.78;;
23322;SDS011;11833;52.554;13.554;2023-02-01T03:21:26;16.83;;;2.83;;
23322;SDS011;11833;52.554;13.554;2023-02-01T03:24:14;12.82;;;2.83;;
23322;SDS011;11833;52.554;13.554;2023-02-01T03:26:49;16.48;;;3.42;;
23322;SDS011;11833;52.554;13.554;2023-02-01T03:29:24;23.25;;;3.47;;
23322;SDS011;11833;52.554;13.554;2023-02-01T03:32:00;15.63;;;2.75;;
23322;SDS011;11833;52.554;13.554;2023-02-01T03:34:26;16.35;;;3.63;;
23322;SDS011;11833;52.554;13.554;2023-02-01T03:36:53;17.38;;;3.00;;
23322;SDS011;11833;52.554;13.554;2023-02-01T03:39:45;18.65;;;3.72;;
23322;SDS011;11833;52.554;13.554;2023-02-01T03:42:24;15.32;;;3.22;;
23322;SDS011;11833;52.554;13.554;2023-02-01T03:44:59;14.82;;;3.92;;
23322;SDS011;11833;52.554;13.554;2023-02-01T03:47:43;16.45;;;2.53;;
23322;SDS011;11833;52.554;13.554;2023-02-01T03:50:14;19.75;;;3.90;;
23322;SDS011;11833;52.554;13.554;2023-02-01T03:55:25;27.00;;;3.50;;
23322;SDS011;11833;52.554;13.554;2023-02-01T03:57:57;16.85;;;2.97;;
23322;SDS011;11833;52.554;13.554;2023-02-01T04:00:38;21.35;;;3.40;;
23322;SDS011;11833;52.554;13.554;2023-02-01T04:03:04;18.05;;;3.17;;
23322;SDS011;11833;52.554;13.554;2023-02-01T04:05:32;13.40;;;2.92;;
23322;SDS011;11833;52.554;13.554;2023-02-01T04:07:58;13.68;;;2.75;;
23322;SDS011;11833;52.554;13.554;2023-02-01T04:10:24;11.65;;;2.35;;
23322;SDS011;11833;52.554;13.554;2023-02-01T04:12:50;18.13;;;3.33;;
23322;SDS011;11833;52.554;13.554;2023-02-01T04:15:16;22.52;;;3.20;;
23322;SDS011;11833;52.554;13.554;2023-02-01T04:17:42;19.35;;;3.80;;
23322;SDS011;11833;52.554;13.554;2023-02-01T04:20:08;19.25;;;3.15;;
23322;SDS011;11833;52.554;13.554;2023-02-01T04:22:35;14.45;;;3.70;;
23322;SDS011;11833;52.554;13.554;2023-02-01T04:25:01;20.67;;;3.28;;
23322;SDS011;11833;52.554;13.554;2023-02-01T04:27:27;17.10;;;3.20;;
23322;SDS011;11833;52.554;13.554;2023-02-01T04:29:53;8.52;;;2.30;;
23322;SDS011;11833;52.554;13.554;2023-02-01T04:32:18;11.00;;;2.80;;
23322;SDS011;11833;52.554;13.554;2023-02-01T04:34:45;18.88;;;3.20;;
23322;SDS011;11833;52.554;13.554;2023-02-01T04:37:11;11.93;;;3.17;;
23322;SDS011;11833;52.554;13.554;2023-02-01T04:39:37;8.60;;;3.15;;
23322;SDS011;11833;52.554;13.554;2023-02-01T04:42:02;14.20;;;3.03;;
23322;SDS011;11833;52.554;13.554;2023-02-01T04:44:28;13.98;;;3.60;;
23322;SDS011;11833;52.554;13.554;2023-02-01T04:46:55;20.15;;;4.10;;
23322;SDS011;11833;52.554;13.554;2023-02-01T04:49:20;16.55;;;3.10;;
23322;SDS011;11833;52.554;13.554;2023-02-01T04:51:46;18.38;;;3.58;;
23322;SDS011;11833;52.554;13.554;2023-02-01T04:54:13;9.57;;;2.30;;
23322;SDS011;11833;52.554;13.554;2023-02-01T04:56:39;18.77;;;3.65;;
23322;SDS011;11833;52.554;13.554;2023-02-01T04:59:05;24.05;;;4.03;;
23322;SDS011;11833;52.554;13.554;2023-02-01T05:01:31;22.50;;;3.78;;
23322;SDS011;11833;52.554;13.554;2023-02-01T05:03:57;22.70;;;3.50;;
23322;SDS011;11833;52.554;13.554;2023-02-01T05:06:23;17.23;;;3.00;;
23322;SDS011;11833;52.554;13.554;2023-02-01T05:08:49;16.73;;;3.83;;
23322;SDS011;11833;52.554;13.554;2023-02-01T05:11:15;15.57;;;3.25;;
23322;SDS011;11833;52.554;13.554;2023-02-01T05:14:00;15.63;;;3.67;;
23322;SDS011;11833;52.554;13.554;2023-02-01T05:16:26;13.70;;;3.15;;
23322;SDS011;11833;52.554;13.554;2023-02-01T05:18:52;25.98;;;4.43;;
23322;SDS011;11833;52.554;13.554;2023-02-01T05:21:18;19.08;;;2.92;;
23322;SDS011;11833;52.554;13.554;2023-02-01T05:23:45;17.75;;;2.72;;
23322;SDS011;11833;52.554;13.554;2023-02-01T05:26:29;21.10;;;4.78;;
23322;SDS011;11833;52.554;13.554;2023-02-01T05:28:55;18.00;;;4.10;;
23322;SDS011;11833;52.554;13.554;2023-02-01T05:31:21;16.88;;;3.72;;
23322;SDS011;11833;52.554;13.554;2023-02-01T05:33:47;21.48;;;3.88;;
23322;SDS011;11833;52.554;13.554;2023-02-01T05:36:13;18.83;;;3.08;;
23322;SDS011;11833;52.554;13.554;2023-02-01T05:38:38;18.90;;;2.72;;
23322;SDS011;11833;52.554;13.554;2023-02-01T05:41:05;24.17;;;2.75;;
23322;SDS011;11833;52.554;13.554;2023-02-01T05:43:31;15.57;;;3.20;;
23322;SDS011;11833;52.554;13.554;2023-02-01T05:45:57;21.80;;;3.42;;
23322;SDS011;11833;52.554;13.554;2023-02-01T05:48:22;16.63;;;2.97;;
23322;SDS011;11833;52.554;13.554;2023-02-01T05:50:48;14.18;;;2.63;;
23322;SDS011;11833;52.554;13.554;2023-02-01T05:53:14;16.08;;;2.78;;
23322;SDS011;11833;52.554;13.554;2023-02-01T05:55:39;17.95;;;2.83;;
23322;SDS011;11833;52.554;13.554;2023-02-01T05:58:06;12.90;;;2.80;;
23322;SDS011;11833;52.554;13.554;2023-02-01T06:00:32;14.05;;;3.10;;
23322;SDS011;11833;52.554;13.554;2023-02-01T06:02:59;24.02;;;3.05;;
23322;SDS011;11833;52.554;13.554;2023-02-01T06:05:24;19.80;;;2.85;;
23322;SDS011;11833;52.554;13.554;2023-02-01T06:07:50;24.45;;;3.92;;
23322;SDS011;11833;52.554;13.554;2023-02-01T06:10:17;17.80;;;3.28;;
23322;SDS011;11833;52.554;13.554;2023-02-01T06:12:43;14.98;;;2.88;;
23322;SDS011;11833;52.554;13.554;2023-02-01T06:15:10;17.77;;;3.00;;
23322;SDS011;11833;52.554;13.554;2023-02-01T06:17:37;16.50;;;2.85;;
23322;SDS011;11833;52.554;13.554;2023-02-01T06:20:04;13.00;;;2.75;;
23322;SDS011;11833;52.554;13.554;2023-02-01T06:22:31;16.13;;;4.18;;
23322;SDS011;11833;52.554;13.554;2023-02-01T06:24:58;16.70;;;3.75;;
23322;SDS011;11833;52.554;13.554;2023-02-01T06:27:24;12.98;;;2.72;;
23322;SDS011;11833;52.554;13.554;2023-02-01T06:29:50;13.50;;;3.10;;
23322;SDS011;11833;52.554;13.554;2023-02-01T06:32:16;21.85;;;3.85;;
23322;SDS011;11833;52.554;13.554;2023-02-01T06:34:42;15.48;;;3.08;;
23322;SDS011;11833;52.554;13.554;2023-02-01T06:37:08;20.00;;;3.60;;
23322;SDS011;11833;52.554;13.554;2023-02-01T06:39:36;13.50;;;3.08;;
23322;SDS011;11833;52.554;13.554;2023-02-01T06:42:01;20.50;;;3.17;;
23322;SDS011;11833;52.554;13.554;2023-02-01T06:44:28;17.60;;;3.35;;
23322;SDS011;11833;52.554;13.554;2023-02-01T06:46:54;20.38;;;2.90;;
23322;SDS011;11833;52.554;13.554;2023-02-01T06:49:20;18.90;;;2.90;;
23322;SDS011;11833;52.554;13.554;2023-02-01T06:51:46;15.23;;;3.15;;
23322;SDS011;11833;52.554;13.554;2023-02-01T06:54:12;15.70;;;2.70;;
23322;SDS011;11833;52.554;13.554;2023-02-01T06:56:38;18.67;;;3.13;;
23322;SDS011;11833;52.554;13.554;2023-02-01T06:59:06;17.23;;;2.97;;
23322;SDS011;11833;52.554;13.554;2023-02-01T07:01:33;22.55;;;3.90;;
23322;SDS011;11833;52.554;13.554;2023-02-01T07:03:59;21.02;;;3.22;;
23322;SDS011;11833;52.554;13.554;2023-02-01T07:06:25;22.80;;;3.70;;
23322;SDS011;11833;52.554;13.554;2023-02-01T07:08:51;13.90;;;3.80;;
23322;SDS011;11833;52.554;13.554;2023-02-01T07:11:20;19.20;;;3.70;;
23322;SDS011;11833;52.554;13.554;2023-02-01T07:13:46;16.17;;;2.90;;
23322;SDS011;11833;52.554;13.554;2023-02-01T07:16:14;15.02;;;3.17;;
23322;SDS011;11833;52.554;13.554;2023-02-01T07:18:42;13.02;;;3.47;;
23322;SDS011;11833;52.554;13.554;2023-02-01T07:21:08;11.80;;;2.50;;
23322;SDS011;11833;52.554;13.554;2023-02-01T07:23:34;18.17;;;2.70;;
23322;SDS011;11833;52.554;13.554;2023-02-01T07:26:01;15.57;;;3.65;;
23322;SDS011;11833;52.554;13.554;2023-02-01T07:28:30;14.80;;;2.45;;
23322;SDS011;11833;52.554;13.554;2023-02-01T07:31:02;16.73;;;2.35;;
23322;SDS011;11833;52.554;13.554;2023-02-01T07:33:33;17.40;;;4.03;;
23322;SDS011;11833;52.554;13.554;2023-02-01T07:36:00;18.98;;;4.18;;
23322;SDS011;11833;52.554;13.554;2023-02-01T07:38:31;16.90;;;3.58;;
23322;SDS011;11833;52.554;13.554;2023-02-01T07:40:58;15.65;;;3.65;;
23322;SDS011;11833;52.554;13.554;2023-02-01T07:43:29;16.92;;;3.50;;
23322;SDS011;11833;52.554;13.554;2023-02-01T07:45:56;13.35;;;2.88;;
23322;SDS011;11833;52.554;13.554;2023-02-01T07:48:23;10.02;;;3.13;;
23322;SDS011;11833;52.554;13.554;2023-02-01T07:50:57;20.73;;;3.08;;
23322;SDS011;11833;52.554;13.554;2023-02-01T07:53:29;13.93;;;3.20;;
23322;SDS011;11833;52.554;13.554;2023-02-01T07:55:56;17.70;;;3.13;;
23322;SDS011;11833;52.554;13.554;2023-02-01T07:58:23;7.93;;;2.67;;
23322;SDS011;11833;52.554;13.554;2023-02-01T08:00:50;11.18;;;2.78;;
23322;SDS011;11833;52.554;13.554;2023-02-01T08:03:35;7.13;;;2.47;;
23322;SDS011;11833;52.554;13.554;2023-02-01T08:06:00;12.93;;;2.65;;
23322;SDS011;11833;52.554;13.554;2023-02-01T08:08:26;14.70;;;3.33;;
23322;SDS011;11833;52.554;13.554;2023-02-01T08:10:56;7.72;;;2.42;;
23322;SDS011;11833;52.554;13.554;2023-02-01T08:13:27;14.73;;;3.15;;
23322;SDS011;11833;52.554;13.554;2023-02-01T08:15:57;11.65;;;2.63;;
23322;SDS011;11833;52.554;13.554;2023-02-01T08:18:24;8.95;;;2.83;;
23322;SDS011;11833;52.554;13.554;2023-02-01T08:20:50;6.47;;;2.78;;
23322;SDS011;11833;52.554;13.554;2023-02-01T08:23:16;14.10;;;2.42;;
23322;SDS011;11833;52.554;13.554;2023-02-01T08:25:42;7.60;;;2.05;;
23322;SDS011;11833;52.554;13.554;2023-02-01T08:28:09;13.20;;;2.63;;
23322;SDS011;11833;52.554;13.554;2023-02-01T08:30:38;9.65;;;2.50;;
23322;SDS011;11833;52.554;13.554;2023-02-01T08:33:07;12.25;;;2.97;;
23322;SDS011;11833;52.554;13.554;2023-02-01T08:35:37;6.13;;;2.13;;
23322;SDS011;11833;52.554;13.554;2023-02-01T08:38:04;8.52;;;3.28;;
23322;SDS011;11833;52.554;13.554;2023-02-01T08:40:30;13.85;;;3.38;;
23322;SDS011;11833;52.554;13.554;2023-02-01T08:42:56;12.57;;;2.70;;
23322;SDS011;11833;52.554;13.554;2023-02-01T08:45:26;8.88;;;3.22;;
23322;SDS011;11833;52.554;13.554;2023-02-01T08:47:54;9.35;;;2.83;;
23322;SDS011;11833;52.554;13.554;2023-02-01T08:50:22;6.80;;;2.80;;
23322;SDS011;11833;52.554;13.554;2023-02-01T08:52:49;7.53;;;2.75;;
23322;SDS011;11833;52.554;13.554;2023-02-01T08:55:15;7.25;;;2.58;;
23322;SDS011;11833;52.554;13.554;2023-02-01T08:57:41;9.65;;;3.20;;
23322;SDS011;11833;52.554;13.554;2023-02-01T09:00:08;4.50;;;1.92;;
23322;SDS011;11833;52.554;13.554;2023-02-01T09:02:37;4.80;;;1.98;;
23322;SDS011;11833;52.554;13.554;2023-02-01T09:05:04;6.03;;;2.70;;
23322;SDS011;11833;52.554;13.554;2023-02-01T09:07:30;6.22;;;2.33;;
23322;SDS011;11833;52.554;13.554;2023-02-01T09:09:56;10.35;;;2.90;;
23322;SDS011;11833;52.554;13.554;2023-02-01T09:12:25;4.43;;;2.30;;
23322;SDS011;11833;52.554;13.554;2023-02-01T09:14:53;5.70;;;2.08;;
23322;SDS011;11833;52.554;13.554;2023-02-01T09:17:20;6.05;;;2.35;;
23322;SDS011;11833;52.554;13.554;2023-02-01T09:19:46;4.65;;;1.77;;
23322;SDS011;11833;52.554;13.554;2023-02-01T09:22:12;3.65;;;2.47;;
23322;SDS011;11833;52.554;13.554;2023-02-01T09:24:40;7.10;;;2.00;;
23322;SDS011;11833;52.554;13.554;2023-02-01T09:27:05;3.67;;;1.50;;
23322;SDS011;11833;52.554;13.554;2023-02-01T09:29:31;4.35;;;1.98;;
23322;SDS011;11833;52.554;13.554;2023-02-01T09:31:57;3.75;;;1.65;;
23322;SDS011;11833;52.554;13.554;2023-02-01T09:34:23;12.82;;;1.63;;
23322;SDS011;11833;52.554;13.554;2023-02-01T09:36:48;5.07;;;1.92;;
23322;SDS011;11833;52.554;13.554;2023-02-01T09:39:14;3.50;;;1.42;;
23322;SDS011;11833;52.554;13.554;2023-02-01T09:44:43;3.40;;;1.73;;
23322;SDS011;11833;52.554;13.554;2023-02-01T09:47:25;7.78;;;2.40;;
23322;SDS011;11833;52.554;13.554;2023-02-01T09:52:36;4.10;;;1.45;;
23322;SDS011;11833;52.554;13.554;2023-02-01T09:55:13;3.33;;;1.77;;
23322;SDS011;11833;52.554;13.554;2023-02-01T09:57:56;4.10;;;1.48;;
23322;SDS011;11833;52.554;13.554;2023-02-01T10:00:29;2.33;;;1.23;;
23322;SDS011;11833;52.554;13.554;2023-02-01T10:03:00;4.18;;;1.92;;
23322;SDS011;11833;52.554;13.554;2023-02-01T10:05:39;3.53;;;1.23;;
23322;SDS011;11833;52.554;13.554;2023-02-01T10:08:33;3.28;;;1.60;;
23322;SDS011;11833;52.554;13.554;2023-02-01T10:11:32;2.05;;;1.13;;
23322;SDS011;11833;52.554;13.554;2023-02-01T10:26:41;2.72;;;1.05;;
23322;SDS011;11833;52.554;13.554;2023-02-01T10:29:19;4.95;;;1.10;;
23322;SDS011;11833;52.554;13.554;2023-02-01T10:31:49;4.55;;;1.40;;
23322;SDS011;11833;52.554;13.554;2023-02-01T10:36:54;3.83;;;1.15;;
23322;SDS011;11833;52.554;13.554;2023-02-01T10:39:25;5.13;;;1.40;;
23322;SDS011;11833;52.554;13.554;2023-02-01T10:41:51;4.25;;;1.30;;
23322;SDS011;11833;52.554;13.554;2023-02-01T10:44:18;4.47;;;1.40;;
23322;SDS011;11833;52.554;13.554;2023-02-01T10:46:49;2.65;;;1.10;;
23322;SDS011;11833;52.554;13.554;2023-02-01T10:58:35;3.88;;;1.25;;
23322;SDS011;11833;52.554;13.554;2023-02-01T11:01:09;4.63;;;1.40;;
23322;SDS011;11833;52.554;13.554;2023-02-01T11:11:30;6.20;;;1.48;;
23322;SDS011;11833;52.554;13.554;2023-02-01T11:16:29;5.65;;;1.20;;
23322;SDS011;11833;52.554;13.554;2023-02-01T11:19:06;3.65;;;1.25;;
23322;SDS011;11833;52.554;13.554;2023-02-01T11:21:32;3.92;;;1.08;;
23322;SDS011;11833;52.554;13.554;2023-02-01T11:24:03;2.47;;;1.15;;
23322;SDS011;11833;52.554;13.554;2023-02-01T11:26:31;7.60;;;1.63;;
23322;SDS011;11833;52.554;13.554;2023-02-01T11:28:59;6.20;;;1.77;;
23322;SDS011;11833;52.554;13.554;2023-02-01T11:31:29;4.30;;;1.23;;
23322;SDS011;11833;52.554;13.554;2023-02-01T11:34:00;2.83;;;1.23;;
23322;SDS011;11833;52.554;13.554;2023-02-01T11:36:34;6.28;;;1.25;;
23322;SDS011;11833;52.554;13.554;2023-02-01T11:44:36;3.75;;;1.67;;
23322;SDS011;11833;52.554;13.554;2023-02-01T11:49:58;6.35;;;1.50;;
23322;SDS011;11833;52.554;13.554;2023-02-01T11:58:14;9.68;;;1.92;;
23322;SDS011;11833;52.554;13.554;2023-02-01T12:01:19;7.88;;;1.85;;
23322;SDS011;11833;52.554;13.554;2023-02-01T12:07:05;5.57;;;1.42;;
23322;SDS011;11833;52.554;13.554;2023-02-01T12:10:15;4.13;;;1.60;;
23322;SDS011;11833;52.554;13.554;2023-02-01T12:19:46;6.28;;;1.85;;
23322;SDS011;11833;52.554;13.554;2023-02-01T12:25:20;10.50;;;1.80;;
23322;SDS011;11833;52.554;13.554;2023-02-01T12:39:39;6.20;;;1.13;;
23322;SDS011;11833;52.554;13.554;2023-02-01T12:47:52;5.97;;;1.80;;
23322;SDS011;11833;52.554;13.554;2023-02-01T12:56:31;9.43;;;1.80;;
23322;SDS011;11833;52.554;13.554;2023-02-01T12:59:04;8.13;;;2.13;;
23322;SDS011;11833;52.554;13.554;2023-02-01T13:01:55;6.07;;;2.00;;
23322;SDS011;11833;52.554;13.554;2023-02-01T13:04:49;5.50;;;1.70;;
23322;SDS011;11833;52.554;13.554;2023-02-01T13:10:32;5.30;;;1.13;;
23322;SDS011;11833;52.554;13.554;2023-02-01T13:15:44;2.63;;;1.17;;
23322;SDS011;11833;52.554;13.554;2023-02-01T13:18:33;6.85;;;1.40;;
23322;SDS011;11833;52.554;13.554;2023-02-01T13:21:03;3.45;;;0.90;;
23322;SDS011;11833;52.554;13.554;2023-02-01T13:23:35;2.00;;;0.88;;
23322;SDS011;11833;52.554;13.554;2023-02-01T13:26:03;1.58;;;0.70;;
23322;SDS011;11833;52.554;13.554;2023-02-01T13:28:31;2.05;;;0.80;;
23322;SDS011;11833;52.554;13.554;2023-02-01T13:40:25;3.78;;;1.13;;
23322;SDS011;11833;52.554;13.554;2023-02-01T13:43:01;3.80;;;1.20;;
23322;SDS011;11833;52.554;13.554;2023-02-01T13:45:35;3.95;;;1.27;;
23322;SDS011;11833;52.554;13.554;2023-02-01T13:48:14;1.60;;;1.10;;
23322;SDS011;11833;52.554;13.554;2023-02-01T13:50:50;5.40;;;1.05;;
23322;SDS011;11833;52.554;13.554;2023-02-01T13:53:33;4.03;;;1.20;;
23322;SDS011;11833;52.554;13.554;2023-02-01T13:56:12;5.93;;;1.38;;
23322;SDS011;11833;52.554;13.554;2023-02-01T13:58:42;6.00;;;1.30;;
23322;SDS011;11833;52.554;13.554;2023-02-01T14:03:56;7.80;;;1.92;;
23322;SDS011;11833;52.554;13.554;2023-02-01T14:13:03;7.38;;;1.90;;
23322;SDS011;11833;52.554;13.554;2023-02-01T14:15:21;8.70;;;2.08;;
23322;SDS011;11833;52.554;13.554;2023-02-01T14:17:51;7.90;;;2.15;;
23322;SDS011;11833;52.554;13.554;2023-02-01T14:23:02;7.85;;;1.58;;
23322;SDS011;11833;52.554;13.554;2023-02-01T14:25:32;11.70;;;1.58;;
23322;SDS011;11833;52.554;13.554;2023-02-01T14:27:58;6.45;;;2.15;;
23322;SDS011;11833;52.554;13.554;2023-02-01T14:30:24;7.60;;;2.17;;
23322;SDS011;11833;52.554;13.554;2023-02-01T14:32:50;8.05;;;1.58;;
23322;SDS011;11833;52.554;13.554;2023-02-01T14:35:20;7.70;;;1.90;;
23322;SDS011;11833;52.554;13.554;2023-02-01T14:37:51;7.82;;;2.25;;
23322;SDS011;11833;52.554;13.554;2023-02-01T14:40:25;5.47;;;2.47;;
23322;SDS011;11833;52.554;13.554;2023-02-01T14:42:53;5.72;;;2.45;;
23322;SDS011;11833;52.554;13.554;2023-02-01T14:47:50;5.13;;;1.67;;
23322;SDS011;11833;52.554;13.554;2023-02-01T14:55:47;12.07;;;2.28;;
23322;SDS011;11833;52.554;13.554;2023-02-01T15:01:26;7.15;;;2.03;;
23322;SDS011;11833;52.554;13.554;2023-02-01T15:04:06;8.60;;;2.30;;
23322;SDS011;11833;52.554;13.554;2023-02-01T15:06:39;9.85;;;2.38;;
23322;SDS011;11833;52.554;13.554;2023-02-01T15:11:53;7.28;;;1.90;;
23322;SDS011;11833;52.554;13.554;2023-02-01T15:14:19;7.85;;;1.50;;
23322;SDS011;11833;52.554;13.554;2023-02-01T15:16:44;9.27;;;2.22;;
23322;SDS011;11833;52.554;13.554;2023-02-01T15:19:18;10.90;;;2.53;;
23322;SDS011;11833;52.554;13.554;2023-02-01T15:21:50;13.43;;;2.05;;
23322;SDS011;11833;52.554;13.554;2023-02-01T15:24:29;9.23;;;2.00;;
23322;SDS011;11833;52.554;13.554;2023-02-01T15:26:56;7.75;;;1.45;;
23322;SDS011;11833;52.554;13.554;2023-02-01T15:29:29;8.07;;;2.45;;
23322;SDS011;11833;52.554;13.554;2023-02-01T15:31:57;8.27;;;1.52;;
23322;SDS011;11833;52.554;13.554;2023-02-01T15:34:33;3.13;;;1.67;;
23322;SDS011;11833;52.554;13.554;2023-02-01T15:37:14;4.72;;;2.30;;
23322;SDS011;11833;52.554;13.554;2023-02-01T15:42:54;2.08;;;1.30;;
23322;SDS011;11833;52.554;13.554;2023-02-01T15:45:24;4.65;;;1.40;;
23322;SDS011;11833;52.554;13.554;2023-02-01T15:47:54;1.30;;;0.90;;
23322;SDS011;11833;52.554;13.554;2023-02-01T15:50:22;3.08;;;1.27;;
23322;SDS011;11833;52.554;13.554;2023-02-01T15:52:49;2.42;;;1.05;;
23322;SDS011;11833;52.554;13.554;2023-02-01T15:55:18;2.90;;;1.15;;
23322;SDS011;11833;52.554;13.554;2023-02-01T15:58:18;3.55;;;1.15;;
23322;SDS011;11833;52.554;13.554;2023-02-01T16:00:53;2.35;;;0.93;;
23322;SDS011;11833;52.554;13.554;2023-02-01T16:03:28;2.13;;;1.17;;
23322;SDS011;11833;52.554;13.554;2023-02-01T16:06:09;4.28;;;1.23;;
23322;SDS011;11833;52.554;13.554;2023-02-01T16:09:01;2.55;;;1.20;;
23322;SDS011;11833;52.554;13.554;2023-02-01T16:11:40;4.15;;;1.25;;
23322;SDS011;11833;52.554;13.554;2023-02-01T16:14:22;0.75;;;0.70;;
23322;SDS011;11833;52.554;13.554;2023-02-01T16:16:49;2.85;;;0.98;;
23322;SDS011;11833;52.554;13.554;2023-02-01T16:19:16;1.73;;;1.20;;
23322;SDS011;11833;52.554;13.554;2023-02-01T16:21:42;0.80;;;0.75;;
23322;SDS011;11833;52.554;13.554;2023-02-01T16:24:08;1.15;;;0.70;;
23322;SDS011;11833;52.554;13.554;2023-02-01T16:26:34;1.05;;;0.95;;
23322;SDS011;11833;52.554;13.554;2023-02-01T16:29:00;1.38;;;0.63;;
23322;SDS011;11833;52.554;13.554;2023-02-01T16:31:31;0.85;;;0.70;;
23322;SDS011;11833;52.554;13.554;2023-02-01T16:34:04;1.15;;;0.65;;
23322;SDS011;11833;52.554;13.554;2023-02-01T16:36:31;0.70;;;0.57;;
23322;SDS011;11833;52.554;13.554;2023-02-01T16:38:58;1.40;;;0.60;;
23322;SDS011;11833;52.554;13.554;2023-02-01T16:41:24;0.60;;;0.60;;
23322;SDS011;11833;52.554;13.554;2023-02-01T16:43:53;0.85;;;0.70;;
23322;SDS011;11833;52.554;13.554;2023-02-01T16:46:21;1.88;;;0.80;;
23322;SDS011;11833;52.554;13.554;2023-02-01T16:48:54;1.02;;;0.73;;
23322;SDS011;11833;52.554;13.554;2023-02-01T16:51:23;1.35;;;0.90;;
23322;SDS011;11833;52.554;13.554;2023-02-01T16:53:52;2.28;;;1.08;;
23322;SDS011;11833;52.554;13.554;2023-02-01T16:56:22;2.35;;;0.90;;
23322;SDS011;11833;52.554;13.554;2023-02-01T16:58:54;1.10;;;1.00;;
23322;SDS011;11833;52.554;13.554;2023-02-01T17:01:20;1.70;;;1.08;;
23322;SDS011;11833;52.554;13.554;2023-02-01T17:03:46;1.15;;;1.05;;
23322;SDS011;11833;52.554;13.554;2023-02-01T17:06:16;3.42;;;1.05;;
23322;SDS011;11833;52.554;13.554;2023-02-01T17:08:46;2.08;;;1.00;;
23322;SDS011;11833;52.554;13.554;2023-02-01T17:11:16;0.90;;;0.90;;
23322;SDS011;11833;52.554;13.554;2023-02-01T17:13:43;2.00;;;0.88;;
23322;SDS011;11833;52.554;13.554;2023-02-01T17:19:00;1.77;;;1.00;;
23322;SDS011;11833;52.554;13.554;2023-02-01T17:21:34;2.30;;;1.17;;
23322;SDS011;11833;52.554;13.554;2023-02-01T17:24:08;4.55;;;1.08;;
23322;SDS011;11833;52.554;13.554;2023-02-01T17:26:39;1.20;;;0.95;;
23322;SDS011;11833;52.554;13.554;2023-02-01T17:29:06;3.05;;;0.98;;
23322;SDS011;11833;52.554;13.554;2023-02-01T17:31:32;4.95;;;1.55;;
23322;SDS011;11833;52.554;13.554;2023-02-01T17:34:04;2.97;;;1.27;;
23322;SDS011;11833;52.554;13.554;2023-02-01T17:36:30;2.35;;;1.10;;
23322;SDS011;11833;52.554;13.554;2023-02-01T17:38:56;1.40;;;1.30;;
23322;SDS011;11833;52.554;13.554;2023-02-01T17:41:23;10.05;;;2.50;;
23322;SDS011;11833;52.554;13.554;2023-02-01T17:43:49;6.95;;;2.28;;
23322;SDS011;11833;52.554;13.554;2023-02-01T17:46:17;2.25;;;1.73;;
23322;SDS011;11833;52.554;13.554;2023-02-01T17:48:44;5.63;;;1.75;;
23322;SDS011;11833;52.554;13.554;2023-02-01T17:51:13;5.80;;;1.20;;
23322;SDS011;11833;52.554;13.554;2023-02-01T17:53:42;2.67;;;1.48;;
23322;SDS011;11833;52.554;13.554;2023-02-01T17:56:11;1.33;;;1.20;;
23322;SDS011;11833;52.554;13.554;2023-02-01T17:58:43;3.70;;;1.30;;
23322;SDS011;11833;52.554;13.554;2023-02-01T18:01:14;3.70;;;1.40;;
23322;SDS011;11833;52.554;13.554;2023-02-01T18:03:42;2.67;;;1.40;;
23322;SDS011;11833;52.554;13.554;2023-02-01T18:06:15;4.88;;;1.60;;
23322;SDS011;11833;52.554;13.554;2023-02-01T18:08:47;3.90;;;2.00;;
23322;SDS011;11833;52.554;13.554;2023-02-01T18:11:14;2.10;;;1.88;;
23322;SDS011;11833;52.554;13.554;2023-02-01T18:13:45;4.65;;;2.03;;
23322;SDS011;11833;52.554;13.554;2023-02-01T18:16:33;1.77;;;1.52;;
23322;SDS011;11833;52.554;13.554;2023-02-01T18:18:59;1.98;;;1.33;;
23322;SDS011;11833;52.554;13.554;2023-02-01T18:21:35;2.08;;;1.50;;
23322;SDS011;11833;52.554;13.554;2023-02-01T18:24:06;3.70;;;1.60;;
23322;SDS011;11833;52.554;13.554;2023-02-01T18:26:36;2.67;;;1.58;;
23322;SDS011;11833;52.554;13.554;2023-02-01T18:29:02;3.92;;;1.70;;
23322;SDS011;11833;52.554;13.554;2023-02-01T18:31:29;5.20;;;1.50;;
23322;SDS011;11833;52.554;13.554;2023-02-01T18:33:56;7.25;;;1.88;;
23322;SDS011;11833;52.554;13.554;2023-02-01T18:36:24;3.08;;;1.58;;
23322;SDS011;11833;52.554;13.554;2023-02-01T18:38:50;10.95;;;1.92;;
23322;SDS011;11833;52.554;13.554;2023-02-01T18:41:20;3.72;;;1.70;;
23322;SDS011;11833;52.554;13.554;2023-02-01T18:43:47;3.80;;;2.05;;
23322;SDS011;11833;52.554;13.554;2023-02-01T18:46:14;3.72;;;1.52;;
23322;SDS011;11833;52.554;13.554;2023-02-01T18:48:40;5.00;;;1.58;;
23322;SDS011;11833;52.554;13.554;2023-02-01T18:51:11;12.20;;;1.90;;